^^

Meteo Aereoporti Centro-Italia

 

 
LIRZ - Perugia S.Egidio (208 m.)
Dati ricevuti: 17/11/2018 13:50
Poco nuvoloso
Poco nuvoloso
 Vento da NE
Vento: NE 30 km/h
TEMPERATURA: 13°C
P.to di Rugiada: 1°C
Umidità: 44%
Pressione: 1019 hPa
Nuvole: Poco nuvoloso
Visibilità: 10 km
Dettagli Nuvole: Poco nuvoloso 1524 m
2018/11/17 12:50 LIRZ 171250Z 05016KT 020V090 9999 SCT050 13/01 Q1019
 
LIPY - Ancona Falconara (12 m.)
Dati ricevuti: 17/11/2018 13:50
Poco nuvoloso
Poco nuvoloso
 Vento da NE
Vento: NE 17 km/h
TEMPERATURA: 13°C
P.to di Rugiada: 2°C
Umidità: 47%
Pressione: 1021 hPa
Nuvole: Poco nuvoloso
Visibilità: 10 km
Dettagli Nuvole: Poco nuvoloso 1067 m
2018/11/17 12:50 LIPY 171250Z 04009KT 010V070 9999 SCT035 13/02 Q1021
 
LIPR - Rimini Miramare (12 m.)
Dati ricevuti: 17/11/2018 14:50
Poco nuvoloso
Poco nuvoloso
 Vento da NE
Vento: NE 24 km/h
TEMPERATURA: 13°C
P.to di Rugiada: 5°C
Umidità: 59%
Pressione: 1022 hPa
Nuvole: Poco nuvoloso
Visibilità: 10 km
Dettagli Nuvole: Qualche nuvola 1219 m
Poco nuvoloso 2134 m
2018/11/17 13:50 LIPR 171350Z 04013KT 9999 FEW040 SCT070 13/05 Q1022
 
LIRF - Roma Fiumicino (2 m.)
Dati ricevuti: 17/11/2018 14:50
Sereno
Sereno
 Vento da NNE
Vento: NNE 17 km/h
TEMPERATURA: 16°C
P.to di Rugiada: 3°C
Umidità: 42%
Pressione: 1016 hPa
Condizioni generali: Sereno
Visibilità: oltre 10 km
2018/11/17 13:50 LIRF 171350Z 03009KT CAVOK 16/03 Q1016 NOSIG
 
LIRA - Roma Ciampino (129 m.)
Dati ricevuti: 17/11/2018 14:50
Qualche nuvola
Qualche nuvola
 Vento da NNE
Vento: NNE 11 km/h
TEMPERATURA: 15°C
P.to di Rugiada: 2°C
Umidità: 42%
Pressione: 1016 hPa
Nuvole: Qualche nuvola
Visibilità: 10 km
Dettagli Nuvole: Qualche nuvola 1524 m
2018/11/17 13:50 LIRA 171350Z 02006KT 9999 FEW050 15/02 Q1016
 
LIRU - Roma Urbe (17 m.)
Dati ricevuti: 17/11/2018 13:50
Sereno
Sereno
 Vento da NE
Vento: NE 17 km/h
TEMPERATURA: 16°C
P.to di Rugiada: 2°C
Umidità: 39%
Pressione: 1016 hPa
Condizioni generali: Sereno
Visibilità: oltre 10 km
2018/11/17 12:50 LIRU 171250Z 04009KT CAVOK 16/02 Q1016
 
LIVF - Frontone (570 m.)
Dati ricevuti: 17/11/2018 12:55
Dati non aggiornati
Poco nuvoloso
Poco nuvoloso
 Vento da W
Vento: W 7 km/h
TEMPERATURA: 8°C
Raffreddamento da Vento: 7°C
P.to di Rugiada: 3°C
Umidità: 71%
Pressione: 1020 hPa
Nuvole: Poco nuvoloso
Visibilità: 10 km
Dettagli Nuvole: Poco nuvoloso 792 m
Poco nuvoloso 914 m
2018/11/17 11:55 LIVF 171155Z 26004KT 9999 SCT026 SCT030 08/03 Q1020
 
LIRQ - Firenze Peretola (40 m.)
Dati ricevuti: 17/11/2018 14:50
Molto nuvoloso
Molto nuvoloso
 Vento da NNE
Vento: NNE 22 km/h
TEMPERATURA: 11°C
P.to di Rugiada: 2°C
Umidità: 54%
Pressione: 1021 hPa
Nuvole: Molto nuvoloso
Visibilità: 10 km
Dettagli Nuvole: Molto nuvoloso 1524 m
2018/11/17 13:50 LIRQ 171350Z 02012KT 9999 BKN050 11/02 Q1021
 
LIBP - Pescara (10 m.)
Dati ricevuti: 17/11/2018 13:50
Molto nuvoloso
Molto nuvoloso
 Vento da SW
Vento: SW 13 km/h
TEMPERATURA: 11°C
P.to di Rugiada: 7°C
Umidità: 77%
Pressione: 1020 hPa
Nuvole: Molto nuvoloso
Visibilità: 10 km
Dettagli Nuvole: Qualche nuvola 914 m
Molto nuvoloso 1829 m
2018/11/17 12:50 LIBP 171250Z 23007KT 9999 FEW030 BKN060 11/07 Q1020
 
LIRV - Viterbo (300 m.)
Dati ricevuti: 17/11/2018 13:55
Qualche nuvola
Qualche nuvola
 Vento da direzione variabile
Vento: direzione variabile 0 km/h
TEMPERATURA: 13°C
P.to di Rugiada: 1°C
Umidità: 44%
Pressione: 1017 hPa
Nuvole: Qualche nuvola
Visibilità: 10 km
Dettagli Nuvole: Qualche nuvola 1524 m
2018/11/17 12:55 LIRV 171255Z /////KT 9999 FEW050 13/01 Q1017
 
LIQN - Rieti (389 m.)
Dati ricevuti: 17/11/2018 13:50
Sereno
Sereno
 Vento da NE
Vento: NE 11 km/h
TEMPERATURA: 13°C
P.to di Rugiada: -1°C
Umidità: 38%
Pressione: 1017 hPa
Condizioni generali: Sereno
Visibilità: oltre 10 km
2018/11/17 12:50 LIQN 171250Z 04006KT CAVOK 13/M01 Q1017
 
LIRG - Guidonia -RM- (88 m.)
Dati ricevuti: 16/11/2018 18:55
Dati non aggiornati
Sereno
Sereno
 Vento da ENE
Vento: ENE 28 km/h
TEMPERATURA: 14°C
P.to di Rugiada: -2°C
Umidità: 33%
Pressione: 1019 hPa
Condizioni generali: Sereno
Visibilità: oltre 10 km
2018/11/16 17:55 LIRG 161755Z 06015KT CAVOK 14/M02 Q1019
 
LIRK - Terminillo -RI-(1874 m.)
Dati ricevuti: 17/11/2018 13:55

 Vento da direzione variabile
Vento: direzione variabile 0 km/h
TEMPERATURA: -3°C
P.to di Rugiada: -4°C
Umidità: 93%
Pressione: 1016 hPa
2018/11/17 12:55 LIRK 171255Z AUTO /////KT //// M03/M04 Q1016
 
LIPK - Forlì (27 m.)
Dati ricevuti: 16/11/2018 17:50
Dati non aggiornati
Molto nuvoloso
Molto nuvoloso
 Vento da N
Vento: N 7 km/h
TEMPERATURA: 12°C
P.to di Rugiada: 3°C
Umidità: 54%
Pressione: 1025 hPa
Nuvole: Molto nuvoloso
Visibilità: 10 km
Dettagli Nuvole: Molto nuvoloso 1219 m
2018/11/16 16:50 LIPK 161650Z 35004KT 9999 BKN040 12/03 Q1025
 
LIRS - Grosseto (5 m.)
Dati ricevuti: 17/11/2018 13:55
Qualche nuvola
Qualche nuvola
 Vento da NNE
Vento: NNE 31 km/h
TEMPERATURA: 14°C
P.to di Rugiada: 3°C
Umidità: 48%
Pressione: 1018 hPa
Nuvole: Qualche nuvola
Visibilità: 10 km
Dettagli Nuvole: Qualche nuvola 762 m
2018/11/17 12:55 LIRS 171255Z 03017KT 9999 FEW025 14/03 Q1018
 
LIRP - Pisa S.Giusto (2 m.)
Dati ricevuti: 17/11/2018 14:45
Poco nuvoloso
Poco nuvoloso
 Vento da ENE
Vento: ENE 22 km/h
TEMPERATURA: 14°C
P.to di Rugiada: 4°C
Umidità: 51%
Pressione: 1021 hPa
Nuvole: Poco nuvoloso
Visibilità: 10 km
Dettagli Nuvole: Qualche nuvola 1524 m
Poco nuvoloso 1829 m
2018/11/17 13:45 LIRP 171345Z 07012KT 9999 FEW050 SCT060 14/04 Q1021 NOSIG